Time,TemperatureF,DewpointF,PressureIn,WindDirection,WindDirectionDegrees,WindSpeedMPH,WindSpeedGustMPH,Humidity,HourlyPrecipIn,Conditions,Clouds,dailyrainin,SoftwareType,DateUTC
2013-01-29 00:05:00,23.3,21.6,30.03,North,11,0.0,0.0,93,0.00,,,0.00,Wunderground v.1.15,2013-01-29 05:05:00,
2013-01-29 00:10:00,23.2,21.5,30.03,North,11,0.0,1.0,93,0.00,,,0.00,Wunderground v.1.15,2013-01-29 05:10:00,
2013-01-29 00:15:00,23.1,21.4,30.03,North,11,0.0,1.0,93,0.00,,,0.00,Wunderground v.1.15,2013-01-29 05:15:00,
2013-01-29 00:20:00,23.1,21.4,30.03,North,11,0.0,0.0,93,0.00,,,0.00,Wunderground v.1.15,2013-01-29 05:20:00,
2013-01-29 00:30:00,23.1,21.4,30.03,North,11,0.0,0.0,93,0.00,,,0.00,Wunderground v.1.15,2013-01-29 05:30:00,
2013-01-29 00:40:00,23.1,21.4,30.03,North,11,0.0,1.0,93,0.00,,,0.00,Wunderground v.1.15,2013-01-29 05:40:00,
2013-01-29 00:45:00,23.1,21.1,30.03,North,11,0.0,1.0,92,0.00,,,0.00,Wunderground v.1.15,2013-01-29 05:45:00,
2013-01-29 00:55:00,22.9,20.9,30.03,North,11,0.0,0.0,92,0.00,,,0.00,Wunderground v.1.15,2013-01-29 05:55:00,
2013-01-29 01:00:00,22.9,20.9,30.03,North,11,0.0,0.0,92,0.00,,,0.00,Wunderground v.1.15,2013-01-29 06:00:00,
2013-01-29 01:05:00,22.9,21.2,30.03,North,11,0.0,0.0,93,0.00,,,0.00,Wunderground v.1.15,2013-01-29 06:05:00,
2013-01-29 01:10:00,22.9,21.2,30.03,North,11,0.0,1.0,93,0.00,,,0.00,Wunderground v.1.15,2013-01-29 06:10:00,
2013-01-29 01:15:00,23.0,21.3,30.04,North,11,1.0,1.0,93,0.00,,,0.00,Wunderground v.1.15,2013-01-29 06:15:00,
2013-01-29 01:20:00,22.9,20.9,30.04,North,11,1.0,1.0,92,0.00,,,0.00,Wunderground v.1.15,2013-01-29 06:20:00,
2013-01-29 01:30:00,22.6,20.6,30.04,North,5,1.0,1.0,92,0.00,,,0.00,Wunderground v.1.15,2013-01-29 06:30:00,
2013-01-29 01:40:00,22.6,20.6,30.05,North,5,1.0,2.0,92,0.00,,,0.00,Wunderground v.1.15,2013-01-29 06:40:00,
2013-01-29 01:45:00,22.5,20.8,30.05,North,9,1.0,2.0,93,0.00,,,0.00,Wunderground v.1.15,2013-01-29 06:45:00,
2013-01-29 01:55:00,22.6,20.9,30.06,NNW,348,1.0,1.0,93,0.00,,,0.00,Wunderground v.1.15,2013-01-29 06:55:00,
2013-01-29 02:00:00,22.6,20.9,30.06,NNW,348,0.0,0.0,93,0.00,,,0.00,Wunderground v.1.15,2013-01-29 07:00:00,
2013-01-29 02:05:00,22.8,21.3,30.06,NNW,348,0.0,1.0,94,0.00,,,0.00,Wunderground v.1.15,2013-01-29 07:05:00,
2013-01-29 02:10:00,22.9,21.4,30.06,NNW,348,1.0,2.0,94,0.00,,,0.00,Wunderground v.1.15,2013-01-29 07:10:00,
2013-01-29 02:20:00,22.9,21.2,30.07,NNW,348,0.0,0.0,93,0.00,,,0.00,Wunderground v.1.15,2013-01-29 07:20:00,
2013-01-29 02:30:00,22.9,21.4,30.07,North,349,1.0,1.0,94,0.00,,,0.00,Wunderground v.1.15,2013-01-29 07:30:00,
2013-01-29 02:40:00,23.0,21.5,30.07,North,349,0.0,1.0,94,0.00,,,0.00,Wunderground v.1.15,2013-01-29 07:40:00,
2013-01-29 02:45:00,23.0,21.5,30.07,North,349,0.0,1.0,94,0.00,,,0.00,Wunderground v.1.15,2013-01-29 07:45:00,
2013-01-29 02:55:00,22.9,21.4,30.07,North,349,0.0,0.0,94,0.00,,,0.00,Wunderground v.1.15,2013-01-29 07:55:00,
2013-01-29 03:00:00,22.9,21.4,30.07,North,349,0.0,0.0,94,0.00,,,0.00,Wunderground v.1.15,2013-01-29 08:00:00,
2013-01-29 03:05:00,22.9,21.4,30.07,North,349,0.0,1.0,94,0.00,,,0.00,Wunderground v.1.15,2013-01-29 08:05:00,
2013-01-29 03:15:00,22.9,21.4,30.07,North,349,0.0,0.0,94,0.00,,,0.00,Wunderground v.1.15,2013-01-29 08:15:00,
2013-01-29 03:20:00,22.9,21.4,30.07,North,349,0.0,0.0,94,0.00,,,0.00,Wunderground v.1.15,2013-01-29 08:20:00,
2013-01-29 03:25:00,22.9,21.4,30.07,North,349,0.0,0.0,94,0.00,,,0.00,Wunderground v.1.15,2013-01-29 08:25:00,
2013-01-29 03:30:00,22.8,21.3,30.07,North,349,0.0,0.0,94,0.00,,,0.00,Wunderground v.1.15,2013-01-29 08:30:00,
2013-01-29 03:40:00,22.7,21.2,30.07,North,349,0.0,0.0,94,0.00,,,0.00,Wunderground v.1.15,2013-01-29 08:40:00,
2013-01-29 03:45:00,22.7,21.5,30.07,North,349,0.0,0.0,95,0.00,,,0.00,Wunderground v.1.15,2013-01-29 08:45:00,
2013-01-29 03:55:00,22.7,21.5,30.08,North,349,0.0,0.0,95,0.00,,,0.00,Wunderground v.1.15,2013-01-29 08:55:00,
2013-01-29 04:00:00,22.8,21.6,30.07,North,349,0.0,0.0,95,0.00,,,0.00,Wunderground v.1.15,2013-01-29 09:00:00,
2013-01-29 04:10:00,22.6,21.4,30.08,North,349,1.0,1.0,95,0.00,,,0.00,Wunderground v.1.15,2013-01-29 09:10:00,
2013-01-29 04:15:00,22.6,21.4,30.08,North,349,1.0,1.0,95,0.00,,,0.00,Wunderground v.1.15,2013-01-29 09:15:00,
2013-01-29 04:20:00,22.5,21.3,30.08,NNW,346,0.0,1.0,95,0.00,,,0.00,Wunderground v.1.15,2013-01-29 09:20:00,
2013-01-29 04:25:00,22.4,21.2,30.08,NNW,346,1.0,1.0,95,0.00,,,0.00,Wunderground v.1.15,2013-01-29 09:25:00,
2013-01-29 04:30:00,22.4,21.2,30.08,NNW,347,1.0,1.0,95,0.00,,,0.00,Wunderground v.1.15,2013-01-29 09:30:00,
2013-01-29 04:35:00,22.5,21.3,30.08,North,350,1.0,3.0,95,0.00,,,0.00,Wunderground v.1.15,2013-01-29 09:35:00,
2013-01-29 04:40:00,22.4,21.2,30.08,North,351,1.0,1.0,95,0.00,,,0.00,Wunderground v.1.15,2013-01-29 09:40:00,
2013-01-29 04:45:00,22.5,21.3,30.08,North,351,1.0,1.0,95,0.00,,,0.00,Wunderground v.1.15,2013-01-29 09:45:00,
2013-01-29 04:55:00,22.4,21.2,30.09,North,351,0.0,0.0,95,0.00,,,0.00,Wunderground v.1.15,2013-01-29 09:55:00,
2013-01-29 05:00:00,22.3,21.1,30.09,North,351,0.0,0.0,95,0.00,,,0.00,Wunderground v.1.15,2013-01-29 10:00:00,
2013-01-29 05:05:00,22.3,21.1,30.10,North,351,0.0,1.0,95,0.00,,,0.00,Wunderground v.1.15,2013-01-29 10:05:00,
2013-01-29 05:10:00,22.1,20.9,30.10,NNW,341,1.0,2.0,95,0.00,,,0.00,Wunderground v.1.15,2013-01-29 10:10:00,
2013-01-29 05:15:00,22.0,20.8,30.10,NW,319,2.0,2.0,95,0.00,,,0.00,Wunderground v.1.15,2013-01-29 10:15:00,
2013-01-29 05:25:00,21.6,20.1,30.10,NW,320,2.0,2.0,94,0.00,,,0.00,Wunderground v.1.15,2013-01-29 10:25:00,
2013-01-29 05:30:00,21.5,20.0,30.10,NW,320,1.0,1.0,94,0.00,,,0.00,Wunderground v.1.15,2013-01-29 10:30:00,
2013-01-29 05:35:00,21.5,20.0,30.10,NW,320,1.0,2.0,94,0.00,,,0.00,Wunderground v.1.15,2013-01-29 10:35:00,
2013-01-29 05:40:00,21.5,20.3,30.10,NW,320,1.0,1.0,95,0.00,,,0.00,Wunderground v.1.15,2013-01-29 10:40:00,
2013-01-29 05:50:00,21.6,20.4,30.10,NW,311,1.0,1.0,95,0.00,,,0.00,Wunderground v.1.15,2013-01-29 10:50:00,
2013-01-29 05:55:00,21.6,20.4,30.10,NW,311,1.0,3.0,95,0.00,,,0.00,Wunderground v.1.15,2013-01-29 10:55:00,
2013-01-29 06:05:00,21.6,20.4,30.09,NW,311,0.0,2.0,95,0.00,,,0.00,Wunderground v.1.15,2013-01-29 11:05:00,
2013-01-29 06:10:00,21.6,20.4,30.10,NW,311,1.0,1.0,95,0.00,,,0.00,Wunderground v.1.15,2013-01-29 11:10:00,
2013-01-29 06:15:00,21.6,20.4,30.10,NW,311,1.0,2.0,95,0.00,,,0.00,Wunderground v.1.15,2013-01-29 11:15:00,
2013-01-29 06:20:00,21.5,20.3,30.10,NW,316,1.0,2.0,95,0.00,,,0.00,Wunderground v.1.15,2013-01-29 11:20:00,
2013-01-29 06:25:00,21.5,20.3,30.10,NW,316,1.0,3.0,95,0.00,,,0.00,Wunderground v.1.15,2013-01-29 11:25:00,
2013-01-29 06:35:00,21.4,20.2,30.10,NW,317,1.0,1.0,95,0.00,,,0.00,Wunderground v.1.15,2013-01-29 11:35:00,
2013-01-29 06:40:00,21.4,20.2,30.10,NW,317,1.0,1.0,95,0.00,,,0.00,Wunderground v.1.15,2013-01-29 11:40:00,
2013-01-29 06:45:00,21.3,20.1,30.10,NNW,339,1.0,1.0,95,0.00,,,0.00,Wunderground v.1.15,2013-01-29 11:45:00,
2013-01-29 06:50:00,21.4,20.2,30.10,NNW,339,1.0,1.0,95,0.00,,,0.00,Wunderground v.1.15,2013-01-29 11:50:00,
2013-01-29 07:00:00,21.4,20.2,30.11,NNW,345,1.0,1.0,95,0.00,,,0.00,Wunderground v.1.15,2013-01-29 12:00:00,
2013-01-29 07:05:00,21.3,20.1,30.10,NNW,345,1.0,1.0,95,0.00,,,0.00,Wunderground v.1.15,2013-01-29 12:05:00,
2013-01-29 07:10:00,21.3,20.1,30.11,NNW,345,0.0,2.0,95,0.00,,,0.00,Wunderground v.1.15,2013-01-29 12:10:00,
2013-01-29 07:15:00,21.3,20.1,30.12,NNW,345,0.0,2.0,95,0.00,,,0.00,Wunderground v.1.15,2013-01-29 12:15:00,
2013-01-29 07:20:00,21.3,20.1,30.11,NNW,345,0.0,0.0,95,0.00,,,0.00,Wunderground v.1.15,2013-01-29 12:20:00,
2013-01-29 07:25:00,21.2,20.0,30.11,NNW,345,0.0,0.0,95,0.00,,,0.00,Wunderground v.1.15,2013-01-29 12:25:00,
2013-01-29 07:35:00,21.3,20.1,30.12,NNW,345,0.0,1.0,95,0.00,,,0.00,Wunderground v.1.15,2013-01-29 12:35:00,
2013-01-29 07:40:00,21.3,20.1,30.13,NNW,345,0.0,0.0,95,0.00,,,0.00,Wunderground v.1.15,2013-01-29 12:40:00,
2013-01-29 07:45:00,21.4,20.2,30.14,NNW,345,1.0,2.0,95,0.00,,,0.00,Wunderground v.1.15,2013-01-29 12:45:00,
2013-01-29 07:55:00,21.6,20.4,30.14,NNW,345,0.0,1.0,95,0.00,,,0.00,Wunderground v.1.15,2013-01-29 12:55:00,
2013-01-29 08:05:00,21.7,20.5,30.14,NNW,345,0.0,0.0,95,0.00,,,0.00,Wunderground v.1.15,2013-01-29 13:05:00,
2013-01-29 08:15:00,22.0,20.8,30.15,NNW,345,0.0,0.0,95,0.00,,,0.00,Wunderground v.1.15,2013-01-29 13:15:00,
2013-01-29 08:20:00,22.0,20.8,30.15,NNW,345,0.0,0.0,95,0.00,,,0.00,Wunderground v.1.15,2013-01-29 13:20:00,
2013-01-29 08:25:00,22.1,20.9,30.15,NNW,345,0.0,0.0,95,0.00,,,0.00,Wunderground v.1.15,2013-01-29 13:25:00,
2013-01-29 08:30:00,22.2,21.0,30.16,NNW,345,0.0,1.0,95,0.00,,,0.00,Wunderground v.1.15,2013-01-29 13:30:00,
2013-01-29 08:35:00,22.3,21.1,30.16,NNW,345,0.0,1.0,95,0.00,,,0.00,Wunderground v.1.15,2013-01-29 13:35:00,
2013-01-29 08:45:00,22.3,21.1,30.16,NNW,345,0.0,1.0,95,0.00,,,0.00,Wunderground v.1.15,2013-01-29 13:45:00,
2013-01-29 08:50:00,22.4,21.2,30.16,NNW,345,0.0,0.0,95,0.00,,,0.00,Wunderground v.1.15,2013-01-29 13:50:00,
2013-01-29 08:55:00,22.5,21.3,30.17,NNW,345,0.0,0.0,95,0.00,,,0.00,Wunderground v.1.15,2013-01-29 13:55:00,
2013-01-29 09:00:00,22.6,21.4,30.16,NNW,345,0.0,0.0,95,0.00,,,0.00,Wunderground v.1.15,2013-01-29 14:00:00,
2013-01-29 09:05:00,22.7,21.5,30.16,NNW,345,0.0,0.0,95,0.00,,,0.00,Wunderground v.1.15,2013-01-29 14:05:00,
2013-01-29 09:15:00,23.1,21.9,30.16,NNW,345,0.0,0.0,95,0.00,,,0.00,Wunderground v.1.15,2013-01-29 14:15:00,
2013-01-29 09:20:00,23.3,22.1,30.16,NNW,345,0.0,0.0,95,0.00,,,0.00,Wunderground v.1.15,2013-01-29 14:20:00,
2013-01-29 09:25:00,23.5,22.3,30.16,NNW,345,0.0,0.0,95,0.00,,,0.00,Wunderground v.1.15,2013-01-29 14:25:00,
2013-01-29 09:35:00,23.8,22.6,30.16,NNW,345,0.0,0.0,95,0.00,,,0.00,Wunderground v.1.15,2013-01-29 14:35:00,
2013-01-29 09:40:00,24.0,22.8,30.16,NNW,345,0.0,0.0,95,0.00,,,0.00,Wunderground v.1.15,2013-01-29 14:40:00,
2013-01-29 09:45:00,24.3,23.1,30.17,NNW,345,0.0,0.0,95,0.00,,,0.00,Wunderground v.1.15,2013-01-29 14:45:00,
2013-01-29 09:55:00,24.4,22.9,30.17,NNW,345,0.0,1.0,94,0.00,,,0.00,Wunderground v.1.15,2013-01-29 14:55:00,
2013-01-29 10:05:00,24.3,22.8,30.18,NNW,345,0.0,1.0,94,0.00,,,0.00,Wunderground v.1.15,2013-01-29 15:05:00,
2013-01-29 10:15:00,24.5,23.0,30.18,NNW,346,0.0,1.0,94,0.00,,,0.00,Wunderground v.1.15,2013-01-29 15:15:00,
2013-01-29 10:20:00,24.5,23.0,30.18,NNW,346,0.0,1.0,94,0.00,,,0.00,Wunderground v.1.15,2013-01-29 15:20:00,
2013-01-29 10:25:00,24.5,23.0,30.17,North,355,0.0,2.0,94,0.00,,,0.00,Wunderground v.1.15,2013-01-29 15:25:00,
2013-01-29 10:35:00,24.6,23.1,30.17,NNE,24,1.0,1.0,94,0.00,,,0.00,Wunderground v.1.15,2013-01-29 15:35:00,
2013-01-29 10:40:00,24.7,23.2,30.17,ENE,65,1.0,1.0,94,0.00,,,0.00,Wunderground v.1.15,2013-01-29 15:40:00,
2013-01-29 10:50:00,24.6,23.1,30.17,ENE,68,1.0,2.0,94,0.00,,,0.00,Wunderground v.1.15,2013-01-29 15:50:00,
2013-01-29 10:55:00,24.5,23.0,30.17,ENE,71,1.0,2.0,94,0.00,,,0.00,Wunderground v.1.15,2013-01-29 15:55:00,
2013-01-29 11:00:00,24.6,23.1,30.17,ENE,71,1.0,1.0,94,0.00,,,0.00,Wunderground v.1.15,2013-01-29 16:00:00,
2013-01-29 11:05:00,24.6,23.1,30.18,ENE,71,0.0,1.0,94,0.00,,,0.00,Wunderground v.1.15,2013-01-29 16:05:00,
2013-01-29 11:15:00,24.8,23.3,30.18,ENE,71,1.0,2.0,94,0.00,,,0.00,Wunderground v.1.15,2013-01-29 16:15:00,
2013-01-29 11:20:00,24.7,23.2,30.17,ENE,71,1.0,2.0,94,0.00,,,0.00,Wunderground v.1.15,2013-01-29 16:20:00,
2013-01-29 11:25:00,24.7,23.2,30.17,ENE,71,1.0,2.0,94,0.00,,,0.00,Wunderground v.1.15,2013-01-29 16:25:00,
2013-01-29 11:30:00,24.9,23.4,30.16,ENE,71,1.0,1.0,94,0.00,,,0.00,Wunderground v.1.15,2013-01-29 16:30:00,
2013-01-29 11:35:00,25.0,23.5,30.16,ENE,71,0.0,1.0,94,0.00,,,0.00,Wunderground v.1.15,2013-01-29 16:35:00,
2013-01-29 11:40:00,25.1,23.6,30.15,ENE,71,0.0,0.0,94,0.00,,,0.00,Wunderground v.1.15,2013-01-29 16:40:00,
2013-01-29 11:45:00,25.3,23.8,30.15,ENE,71,0.0,0.0,94,0.00,,,0.00,Wunderground v.1.15,2013-01-29 16:45:00,
2013-01-29 11:55:00,25.6,24.1,30.14,ENE,71,0.0,0.0,94,0.00,,,0.00,Wunderground v.1.15,2013-01-29 16:55:00,
2013-01-29 12:05:00,25.7,24.2,30.14,ENE,71,0.0,0.0,94,0.00,,,0.00,Wunderground v.1.15,2013-01-29 17:05:00,
2013-01-29 12:10:00,25.9,24.4,30.13,ENE,71,0.0,0.0,94,0.00,,,0.00,Wunderground v.1.15,2013-01-29 17:10:00,
2013-01-29 12:15:00,26.0,24.3,30.13,ENE,71,0.0,0.0,93,0.00,,,0.00,Wunderground v.1.15,2013-01-29 17:15:00,
2013-01-29 12:20:00,26.1,24.6,30.13,ENE,71,0.0,0.0,94,0.00,,,0.00,Wunderground v.1.15,2013-01-29 17:20:00,
2013-01-29 12:30:00,26.3,24.6,30.13,ENE,71,0.0,0.0,93,0.00,,,0.00,Wunderground v.1.15,2013-01-29 17:30:00,
2013-01-29 12:35:00,26.2,24.5,30.13,ENE,71,0.0,1.0,93,0.00,,,0.00,Wunderground v.1.15,2013-01-29 17:35:00,
2013-01-29 12:40:00,26.2,24.5,30.13,ENE,72,1.0,3.0,93,0.00,,,0.00,Wunderground v.1.15,2013-01-29 17:40:00,
2013-01-29 12:45:00,26.0,24.3,30.12,ENE,72,1.0,3.0,93,0.00,,,0.00,Wunderground v.1.15,2013-01-29 17:45:00,
2013-01-29 12:50:00,26.0,24.3,30.12,ENE,73,2.0,2.0,93,0.00,,,0.00,Wunderground v.1.15,2013-01-29 17:50:00,
2013-01-29 13:00:00,26.1,24.4,30.11,ENE,75,1.0,2.0,93,0.00,,,0.00,Wunderground v.1.15,2013-01-29 18:00:00,
2013-01-29 13:10:00,26.2,24.5,30.11,ENE,76,1.0,1.0,93,0.00,,,0.00,Wunderground v.1.15,2013-01-29 18:10:00,
2013-01-29 13:15:00,26.5,24.8,30.10,ENE,76,1.0,1.0,93,0.00,,,0.00,Wunderground v.1.15,2013-01-29 18:15:00,
2013-01-29 13:20:00,26.7,24.9,30.09,ENE,76,1.0,1.0,93,0.00,,,0.00,Wunderground v.1.15,2013-01-29 18:20:00,
2013-01-29 13:25:00,27.1,25.3,30.09,ENE,76,0.0,1.0,93,0.00,,,0.00,Wunderground v.1.15,2013-01-29 18:25:00,
2013-01-29 13:30:00,27.2,25.4,30.08,ENE,76,1.0,1.0,93,0.00,,,0.00,Wunderground v.1.15,2013-01-29 18:30:00,
2013-01-29 13:35:00,27.2,25.2,30.08,ENE,76,1.0,1.0,92,0.00,,,0.00,Wunderground v.1.15,2013-01-29 18:35:00,
2013-01-29 13:40:00,27.4,25.4,30.08,ENE,76,0.0,2.0,92,0.00,,,0.00,Wunderground v.1.15,2013-01-29 18:40:00,
2013-01-29 13:45:00,27.4,25.4,30.07,ENE,76,0.0,2.0,92,0.00,,,0.00,Wunderground v.1.15,2013-01-29 18:45:00,
2013-01-29 13:50:00,27.3,25.3,30.07,ENE,76,1.0,2.0,92,0.00,,,0.00,Wunderground v.1.15,2013-01-29 18:50:00,
2013-01-29 13:55:00,27.2,25.2,30.07,East,84,1.0,3.0,92,0.00,,,0.00,Wunderground v.1.15,2013-01-29 18:55:00,
2013-01-29 14:05:00,27.4,25.4,30.06,East,97,2.0,3.0,92,0.00,,,0.00,Wunderground v.1.15,2013-01-29 19:05:00,
2013-01-29 14:15:00,27.4,25.4,30.06,East,98,2.0,2.0,92,0.00,,,0.00,Wunderground v.1.15,2013-01-29 19:15:00,
2013-01-29 14:20:00,27.5,25.5,30.06,East,98,1.0,1.0,92,0.00,,,0.00,Wunderground v.1.15,2013-01-29 19:20:00,
2013-01-29 14:30:00,27.6,25.6,30.06,East,99,0.0,1.0,92,0.00,,,0.01,Wunderground v.1.15,2013-01-29 19:30:00,
2013-01-29 14:40:00,27.5,25.5,30.06,East,100,1.0,1.0,92,0.00,,,0.01,Wunderground v.1.15,2013-01-29 19:40:00,
2013-01-29 14:45:00,27.6,25.6,30.05,East,100,0.0,1.0,92,0.00,,,0.01,Wunderground v.1.15,2013-01-29 19:45:00,
2013-01-29 14:50:00,27.7,25.7,30.05,East,100,0.0,1.0,92,0.00,,,0.01,Wunderground v.1.15,2013-01-29 19:50:00,
2013-01-29 14:55:00,27.7,25.7,30.05,East,101,1.0,1.0,92,0.00,,,0.01,Wunderground v.1.15,2013-01-29 19:55:00,
2013-01-29 15:00:00,27.6,25.6,30.05,East,101,1.0,1.0,92,0.00,,,0.01,Wunderground v.1.15,2013-01-29 20:00:00,
2013-01-29 15:05:00,27.7,25.7,30.06,East,101,0.0,1.0,92,0.00,,,0.01,Wunderground v.1.15,2013-01-29 20:05:00,
2013-01-29 15:15:00,27.6,25.6,30.05,East,99,1.0,2.0,92,0.00,,,0.01,Wunderground v.1.15,2013-01-29 20:15:00,
2013-01-29 15:20:00,27.8,25.8,30.05,East,99,0.0,0.0,92,0.00,,,0.01,Wunderground v.1.15,2013-01-29 20:20:00,
2013-01-29 15:25:00,27.9,25.9,30.05,East,99,0.0,0.0,92,0.00,,,0.01,Wunderground v.1.15,2013-01-29 20:25:00,
2013-01-29 15:30:00,27.9,25.9,30.05,East,98,0.0,0.0,92,0.00,,,0.02,Wunderground v.1.15,2013-01-29 20:30:00,
2013-01-29 15:35:00,27.8,25.8,30.06,East,98,1.0,1.0,92,0.00,,,0.02,Wunderground v.1.15,2013-01-29 20:35:00,
2013-01-29 15:40:00,27.8,25.8,30.06,East,98,1.0,1.0,92,0.00,,,0.02,Wunderground v.1.15,2013-01-29 20:40:00,
2013-01-29 15:45:00,27.7,25.7,30.05,East,98,1.0,2.0,92,0.00,,,0.02,Wunderground v.1.15,2013-01-29 20:45:00,
2013-01-29 15:50:00,27.6,25.6,30.06,East,96,1.0,1.0,92,0.00,,,0.02,Wunderground v.1.15,2013-01-29 20:50:00,
2013-01-29 16:00:00,27.6,25.8,30.06,East,95,1.0,1.0,93,0.00,,,0.02,Wunderground v.1.15,2013-01-29 21:00:00,
2013-01-29 16:05:00,27.6,25.8,30.05,East,95,1.0,1.0,93,0.00,,,0.02,Wunderground v.1.15,2013-01-29 21:05:00,
2013-01-29 16:10:00,27.6,25.8,30.05,East,95,0.0,0.0,93,0.00,,,0.02,Wunderground v.1.15,2013-01-29 21:10:00,
2013-01-29 16:20:00,27.6,25.8,30.05,East,95,0.0,0.0,93,0.00,,,0.02,Wunderground v.1.15,2013-01-29 21:20:00,
2013-01-29 16:25:00,27.6,25.8,30.04,East,95,0.0,2.0,93,0.00,,,0.02,Wunderground v.1.15,2013-01-29 21:25:00,
2013-01-29 16:30:00,27.6,25.8,30.04,East,94,0.0,1.0,93,0.00,,,0.02,Wunderground v.1.15,2013-01-29 21:30:00,
2013-01-29 16:35:00,27.6,25.8,30.03,East,94,0.0,1.0,93,0.00,,,0.02,Wunderground v.1.15,2013-01-29 21:35:00,
2013-01-29 16:40:00,27.7,25.9,30.03,East,94,0.0,0.0,93,0.00,,,0.02,Wunderground v.1.15,2013-01-29 21:40:00,
2013-01-29 16:45:00,27.7,26.2,30.03,East,94,0.0,0.0,94,0.00,,,0.02,Wunderground v.1.15,2013-01-29 21:45:00,
2013-01-29 16:50:00,27.9,26.4,30.04,East,94,0.0,0.0,94,0.00,,,0.02,Wunderground v.1.15,2013-01-29 21:50:00,
2013-01-29 16:55:00,28.0,26.5,30.03,East,92,0.0,0.0,94,0.00,,,0.02,Wunderground v.1.15,2013-01-29 21:55:00,
2013-01-29 17:00:00,28.1,26.6,30.03,East,92,0.0,0.0,94,0.00,,,0.02,Wunderground v.1.15,2013-01-29 22:00:00,
2013-01-29 17:05:00,28.2,26.7,30.03,East,92,0.0,0.0,94,0.00,,,0.02,Wunderground v.1.15,2013-01-29 22:05:00,
2013-01-29 17:10:00,28.3,26.8,30.02,East,91,0.0,1.0,94,0.00,,,0.02,Wunderground v.1.15,2013-01-29 22:10:00,
2013-01-29 17:20:00,28.1,26.6,30.04,ENE,76,2.0,2.0,94,0.00,,,0.02,Wunderground v.1.15,2013-01-29 22:20:00,
2013-01-29 17:25:00,28.1,26.6,30.03,ENE,74,2.0,2.0,94,0.00,,,0.02,Wunderground v.1.15,2013-01-29 22:25:00,
2013-01-29 17:35:00,28.2,26.7,30.03,ENE,60,2.0,2.0,94,0.00,,,0.02,Wunderground v.1.15,2013-01-29 22:35:00,
2013-01-29 17:40:00,28.2,26.7,30.03,ENE,58,2.0,3.0,94,0.00,,,0.02,Wunderground v.1.15,2013-01-29 22:40:00,
2013-01-29 17:50:00,28.2,26.7,30.03,NE,56,1.0,1.0,94,0.00,,,0.02,Wunderground v.1.15,2013-01-29 22:50:00,
2013-01-29 17:55:00,28.3,26.8,30.02,NE,56,1.0,1.0,94,0.00,,,0.02,Wunderground v.1.15,2013-01-29 22:55:00,
2013-01-29 18:00:00,28.4,26.9,30.02,NE,56,0.0,0.0,94,0.00,,,0.02,Wunderground v.1.15,2013-01-29 23:00:00,
2013-01-29 18:05:00,28.4,26.9,30.01,NE,56,0.0,0.0,94,0.00,,,0.02,Wunderground v.1.15,2013-01-29 23:05:00,
2013-01-29 18:10:00,28.4,26.9,30.02,NE,56,0.0,0.0,94,0.00,,,0.02,Wunderground v.1.15,2013-01-29 23:10:00,
2013-01-29 18:20:00,28.4,26.9,30.02,NE,56,0.0,1.0,94,0.00,,,0.02,Wunderground v.1.15,2013-01-29 23:20:00,
2013-01-29 18:25:00,28.5,27.0,30.01,NE,56,1.0,1.0,94,0.00,,,0.02,Wunderground v.1.15,2013-01-29 23:25:00,
2013-01-29 18:30:00,28.5,27.0,30.00,NE,56,1.0,1.0,94,0.00,,,0.02,Wunderground v.1.15,2013-01-29 23:30:00,
2013-01-29 18:40:00,28.6,27.1,30.00,NE,55,2.0,3.0,94,0.00,,,0.02,Wunderground v.1.15,2013-01-29 23:40:00,
2013-01-29 18:50:00,28.7,27.2,30.00,NE,55,2.0,2.0,94,0.00,,,0.02,Wunderground v.1.15,2013-01-29 23:50:00,
2013-01-29 18:55:00,28.7,27.2,30.00,NE,55,1.0,2.0,94,0.00,,,0.02,Wunderground v.1.15,2013-01-29 23:55:00,
2013-01-29 19:00:00,28.8,27.3,29.99,NE,55,0.0,1.0,94,0.00,,,0.02,Wunderground v.1.15,2013-01-30 00:00:00,
2013-01-29 19:05:00,28.8,27.3,29.99,NE,55,0.0,1.0,94,0.00,,,0.02,Wunderground v.1.15,2013-01-30 00:05:00,
2013-01-29 19:10:00,28.9,27.4,29.99,NE,55,0.0,0.0,94,0.00,,,0.02,Wunderground v.1.15,2013-01-30 00:10:00,
2013-01-29 19:15:00,28.9,27.4,29.99,NE,55,0.0,0.0,94,0.00,,,0.02,Wunderground v.1.15,2013-01-30 00:15:00,
2013-01-29 19:25:00,29.0,27.5,29.99,NE,55,0.0,0.0,94,0.00,,,0.02,Wunderground v.1.15,2013-01-30 00:25:00,
2013-01-29 19:30:00,29.1,27.6,29.99,NE,55,0.0,0.0,94,0.00,,,0.02,Wunderground v.1.15,2013-01-30 00:30:00,
2013-01-29 19:35:00,29.2,27.7,29.98,NE,55,0.0,0.0,94,0.00,,,0.02,Wunderground v.1.15,2013-01-30 00:35:00,
2013-01-29 19:40:00,29.2,27.7,29.97,NE,55,0.0,0.0,94,0.00,,,0.02,Wunderground v.1.15,2013-01-30 00:40:00,
2013-01-29 19:45:00,29.2,27.7,29.97,NE,55,0.0,0.0,94,0.00,,,0.02,Wunderground v.1.15,2013-01-30 00:45:00,
2013-01-29 19:50:00,29.3,27.8,29.96,NE,55,0.0,3.0,94,0.00,,,0.02,Wunderground v.1.15,2013-01-30 00:50:00,
2013-01-29 19:55:00,29.4,27.9,29.95,NE,55,1.0,3.0,94,0.00,,,0.02,Wunderground v.1.15,2013-01-30 00:55:00,
2013-01-29 20:00:00,29.3,27.8,29.95,NE,55,1.0,1.0,94,0.00,,,0.02,Wunderground v.1.15,2013-01-30 01:00:00,
2013-01-29 20:10:00,29.5,28.0,29.96,NE,55,1.0,1.0,94,0.00,,,0.02,Wunderground v.1.15,2013-01-30 01:10:00,
2013-01-29 20:15:00,29.6,28.1,29.95,NE,55,1.0,1.0,94,0.00,,,0.02,Wunderground v.1.15,2013-01-30 01:15:00,
2013-01-29 20:25:00,29.8,28.3,29.96,NE,55,0.0,0.0,94,0.00,,,0.02,Wunderground v.1.15,2013-01-30 01:25:00,
2013-01-29 20:35:00,29.9,28.4,29.95,NE,55,0.0,1.0,94,0.00,,,0.02,Wunderground v.1.15,2013-01-30 01:35:00,
2013-01-29 20:45:00,30.0,28.5,29.95,NE,55,0.0,0.0,94,0.00,,,0.02,Wunderground v.1.15,2013-01-30 01:45:00,
2013-01-29 20:50:00,30.1,28.8,29.95,NE,55,0.0,0.0,95,0.00,,,0.02,Wunderground v.1.15,2013-01-30 01:50:00,
2013-01-29 21:00:00,30.3,29.0,29.94,NE,55,0.0,0.0,95,0.00,,,0.02,Wunderground v.1.15,2013-01-30 02:00:00,
2013-01-29 21:05:00,30.4,29.1,29.94,NE,55,0.0,0.0,95,0.00,,,0.02,Wunderground v.1.15,2013-01-30 02:05:00,
2013-01-29 21:10:00,30.6,29.3,29.94,NE,55,0.0,0.0,95,0.00,,,0.02,Wunderground v.1.15,2013-01-30 02:10:00,
2013-01-29 21:20:00,31.4,30.4,29.93,NE,55,0.0,0.0,96,0.00,,,0.02,Wunderground v.1.15,2013-01-30 02:20:00,
2013-01-29 21:25:00,31.6,30.6,29.94,NE,55,0.0,0.0,96,0.00,,,0.02,Wunderground v.1.15,2013-01-30 02:25:00,
2013-01-29 21:30:00,31.6,30.3,29.93,NE,55,0.0,0.0,95,0.00,,,0.02,Wunderground v.1.15,2013-01-30 02:30:00,
2013-01-29 21:35:00,31.4,30.1,29.93,NE,55,0.0,0.0,95,0.00,,,0.02,Wunderground v.1.15,2013-01-30 02:35:00,
2013-01-29 21:40:00,31.2,29.9,29.93,NE,55,0.0,1.0,95,0.00,,,0.02,Wunderground v.1.15,2013-01-30 02:40:00,
2013-01-29 21:45:00,31.0,29.7,29.93,NE,55,0.0,1.0,95,0.00,,,0.02,Wunderground v.1.15,2013-01-30 02:45:00,
2013-01-29 21:55:00,31.0,29.7,29.92,NE,55,1.0,1.0,95,0.00,,,0.02,Wunderground v.1.15,2013-01-30 02:55:00,
2013-01-29 22:00:00,31.1,29.8,29.92,NE,55,0.0,1.0,95,0.00,,,0.02,Wunderground v.1.15,2013-01-30 03:00:00,
2013-01-29 22:05:00,31.3,30.0,29.92,NE,55,0.0,1.0,95,0.00,,,0.02,Wunderground v.1.15,2013-01-30 03:05:00,
2013-01-29 22:10:00,31.4,30.4,29.92,NE,55,0.0,0.0,96,0.00,,,0.02,Wunderground v.1.15,2013-01-30 03:10:00,
2013-01-29 22:15:00,31.4,30.1,29.92,NE,55,1.0,1.0,95,0.00,,,0.02,Wunderground v.1.15,2013-01-30 03:15:00,
2013-01-29 22:20:00,31.4,30.4,29.92,NE,55,0.0,0.0,96,0.00,,,0.02,Wunderground v.1.15,2013-01-30 03:20:00,
2013-01-29 22:30:00,31.5,30.5,29.92,NE,55,1.0,2.0,96,0.00,,,0.02,Wunderground v.1.15,2013-01-30 03:30:00,
2013-01-29 22:35:00,32.1,31.1,29.91,NE,55,1.0,2.0,96,0.00,,,0.02,Wunderground v.1.15,2013-01-30 03:35:00,
2013-01-29 22:45:00,32.2,31.2,29.90,NE,55,0.0,1.0,96,0.00,,,0.02,Wunderground v.1.15,2013-01-30 03:45:00,
2013-01-29 22:50:00,32.5,31.5,29.91,NE,55,0.0,0.0,96,0.00,,,0.02,Wunderground v.1.15,2013-01-30 03:50:00,
2013-01-29 22:55:00,32.6,31.6,29.91,NE,55,1.0,1.0,96,0.00,,,0.02,Wunderground v.1.15,2013-01-30 03:55:00,
2013-01-29 23:00:00,32.9,31.9,29.90,NE,55,0.0,0.0,96,0.00,,,0.02,Wunderground v.1.15,2013-01-30 04:00:00,
2013-01-29 23:05:00,33.2,32.2,29.90,NE,55,0.0,1.0,96,0.00,,,0.02,Wunderground v.1.15,2013-01-30 04:05:00,
2013-01-29 23:10:00,33.1,32.1,29.90,NE,55,0.0,0.0,96,0.00,,,0.02,Wunderground v.1.15,2013-01-30 04:10:00,
2013-01-29 23:15:00,33.1,32.1,29.90,NE,55,0.0,2.0,96,0.00,,,0.02,Wunderground v.1.15,2013-01-30 04:15:00,
2013-01-29 23:20:00,32.9,31.6,29.90,NE,55,1.0,2.0,95,0.00,,,0.02,Wunderground v.1.15,2013-01-30 04:20:00,
2013-01-29 23:30:00,33.2,32.2,29.91,NE,55,1.0,1.0,96,0.00,,,0.02,Wunderground v.1.15,2013-01-30 04:30:00,
2013-01-29 23:35:00,33.3,32.3,29.90,NE,55,0.0,1.0,96,0.00,,,0.02,Wunderground v.1.15,2013-01-30 04:35:00,
2013-01-29 23:40:00,33.6,32.6,29.90,NE,55,0.0,0.0,96,0.00,,,0.02,Wunderground v.1.15,2013-01-30 04:40:00,
2013-01-29 23:45:00,33.8,32.8,29.90,NE,55,0.0,0.0,96,0.00,,,0.02,Wunderground v.1.15,2013-01-30 04:45:00,
2013-01-29 23:50:00,34.0,33.0,29.90,NE,55,0.0,0.0,96,0.00,,,0.02,Wunderground v.1.15,2013-01-30 04:50:00,
2013-01-29 23:55:00,33.9,32.9,29.90,NE,55,0.0,0.0,96,0.00,,,0.02,Wunderground v.1.15,2013-01-30 04:55:00,